sensor_id;sensor_type;location;lat;lon;timestamp;P1;durP1;ratioP1;P2;durP2;ratioP2
73104;SDS011;61296;50.526;30.792;2023-03-16T00:00:23;42.83;;;20.52;;
73104;SDS011;61296;50.526;30.792;2023-03-16T00:15:49;43.28;;;20.42;;
73104;SDS011;61296;50.526;30.792;2023-03-16T00:31:10;40.83;;;19.27;;
73104;SDS011;61296;50.526;30.792;2023-03-16T00:46:35;53.20;;;23.58;;
73104;SDS011;61296;50.526;30.792;2023-03-16T01:01:54;55.00;;;24.73;;
73104;SDS011;61296;50.526;30.792;2023-03-16T01:17:14;48.63;;;23.65;;
73104;SDS011;61296;50.526;30.792;2023-03-16T01:32:35;42.30;;;18.70;;
73104;SDS011;61296;50.526;30.792;2023-03-16T01:47:55;37.70;;;19.17;;
73104;SDS011;61296;50.526;30.792;2023-03-16T02:03:17;35.90;;;18.00;;
73104;SDS011;61296;50.526;30.792;2023-03-16T02:18:45;39.22;;;17.63;;
73104;SDS011;61296;50.526;30.792;2023-03-16T02:34:06;32.63;;;17.58;;
73104;SDS011;61296;50.526;30.792;2023-03-16T02:49:35;35.80;;;17.67;;
73104;SDS011;61296;50.526;30.792;2023-03-16T03:04:56;42.30;;;20.13;;
73104;SDS011;61296;50.526;30.792;2023-03-16T03:20:18;42.33;;;18.90;;
73104;SDS011;61296;50.526;30.792;2023-03-16T03:35:37;47.00;;;19.80;;
73104;SDS011;61296;50.526;30.792;2023-03-16T03:50:57;47.95;;;22.25;;
73104;SDS011;61296;50.526;30.792;2023-03-16T04:06:31;47.20;;;20.60;;
73104;SDS011;61296;50.526;30.792;2023-03-16T04:21:50;56.03;;;23.70;;
73104;SDS011;61296;50.526;30.792;2023-03-16T04:37:11;54.25;;;22.80;;
73104;SDS011;61296;50.526;30.792;2023-03-16T04:52:34;56.78;;;24.23;;
73104;SDS011;61296;50.526;30.792;2023-03-16T05:07:54;65.80;;;25.98;;
73104;SDS011;61296;50.526;30.792;2023-03-16T05:23:15;63.30;;;24.23;;
73104;SDS011;61296;50.526;30.792;2023-03-16T05:38:38;84.30;;;28.52;;
73104;SDS011;61296;50.526;30.792;2023-03-16T05:54:00;75.35;;;27.27;;
73104;SDS011;61296;50.526;30.792;2023-03-16T06:09:27;73.15;;;26.52;;
73104;SDS011;61296;50.526;30.792;2023-03-16T06:24:47;73.00;;;22.13;;
73104;SDS011;61296;50.526;30.792;2023-03-16T06:40:07;69.88;;;20.25;;
73104;SDS011;61296;50.526;30.792;2023-03-16T06:55:28;107.88;;;18.27;;
73104;SDS011;61296;50.526;30.792;2023-03-16T07:10:49;96.55;;;16.83;;
73104;SDS011;61296;50.526;30.792;2023-03-16T07:26:10;77.85;;;17.13;;
73104;SDS011;61296;50.526;30.792;2023-03-16T07:41:40;80.82;;;18.90;;
73104;SDS011;61296;50.526;30.792;2023-03-16T08:12:33;63.80;;;19.65;;
73104;SDS011;61296;50.526;30.792;2023-03-16T08:27:53;64.25;;;18.80;;
73104;SDS011;61296;50.526;30.792;2023-03-16T08:43:14;69.75;;;19.85;;
73104;SDS011;61296;50.526;30.792;2023-03-16T08:58:35;64.00;;;19.20;;
73104;SDS011;61296;50.526;30.792;2023-03-16T09:13:56;65.13;;;19.13;;
73104;SDS011;61296;50.526;30.792;2023-03-16T09:29:16;71.63;;;18.33;;
73104;SDS011;61296;50.526;30.792;2023-03-16T10:00:22;70.97;;;19.75;;
73104;SDS011;61296;50.526;30.792;2023-03-16T10:15:44;58.30;;;19.60;;
73104;SDS011;61296;50.526;30.792;2023-03-16T10:31:08;77.68;;;20.15;;
73104;SDS011;61296;50.526;30.792;2023-03-16T10:46:34;70.13;;;18.48;;
73104;SDS011;61296;50.526;30.792;2023-03-16T11:01:55;75.60;;;19.15;;
73104;SDS011;61296;50.526;30.792;2023-03-16T11:17:20;64.43;;;18.75;;
73104;SDS011;61296;50.526;30.792;2023-03-16T11:32:51;60.38;;;17.63;;
73104;SDS011;61296;50.526;30.792;2023-03-16T11:48:23;56.95;;;18.75;;
73104;SDS011;61296;50.526;30.792;2023-03-16T12:19:44;42.33;;;15.38;;
73104;SDS011;61296;50.526;30.792;2023-03-16T12:50:52;42.17;;;16.33;;
73104;SDS011;61296;50.526;30.792;2023-03-16T13:06:15;45.70;;;17.48;;
73104;SDS011;61296;50.526;30.792;2023-03-16T13:21:40;47.85;;;19.17;;
73104;SDS011;61296;50.526;30.792;2023-03-16T13:37:00;37.97;;;15.65;;
73104;SDS011;61296;50.526;30.792;2023-03-16T14:07:47;40.70;;;14.95;;
73104;SDS011;61296;50.526;30.792;2023-03-16T14:23:22;38.10;;;15.00;;
73104;SDS011;61296;50.526;30.792;2023-03-16T14:38:44;31.80;;;13.73;;
73104;SDS011;61296;50.526;30.792;2023-03-16T14:54:12;36.97;;;15.13;;
73104;SDS011;61296;50.526;30.792;2023-03-16T15:09:41;34.13;;;14.82;;
73104;SDS011;61296;50.526;30.792;2023-03-16T15:40:41;38.80;;;13.45;;
73104;SDS011;61296;50.526;30.792;2023-03-16T15:56:03;34.05;;;13.38;;
73104;SDS011;61296;50.526;30.792;2023-03-16T16:11:25;36.33;;;13.73;;
73104;SDS011;61296;50.526;30.792;2023-03-16T16:26:46;43.38;;;17.83;;
73104;SDS011;61296;50.526;30.792;2023-03-16T16:42:08;25.80;;;11.07;;
73104;SDS011;61296;50.526;30.792;2023-03-16T16:57:33;25.77;;;10.35;;
73104;SDS011;61296;50.526;30.792;2023-03-16T17:12:54;23.25;;;11.23;;
73104;SDS011;61296;50.526;30.792;2023-03-16T17:28:17;20.88;;;9.73;;
73104;SDS011;61296;50.526;30.792;2023-03-16T17:43:36;20.58;;;9.98;;
73104;SDS011;61296;50.526;30.792;2023-03-16T17:58:55;20.23;;;9.05;;
73104;SDS011;61296;50.526;30.792;2023-03-16T18:14:36;20.45;;;8.57;;
73104;SDS011;61296;50.526;30.792;2023-03-16T18:29:57;16.13;;;7.72;;
73104;SDS011;61296;50.526;30.792;2023-03-16T18:45:16;12.45;;;6.80;;
73104;SDS011;61296;50.526;30.792;2023-03-16T19:00:36;12.57;;;5.53;;
73104;SDS011;61296;50.526;30.792;2023-03-16T19:15:57;12.15;;;5.50;;
73104;SDS011;61296;50.526;30.792;2023-03-16T19:31:19;13.68;;;4.80;;
73104;SDS011;61296;50.526;30.792;2023-03-16T19:46:41;13.43;;;5.93;;
73104;SDS011;61296;50.526;30.792;2023-03-16T20:02:01;9.18;;;4.60;;
73104;SDS011;61296;50.526;30.792;2023-03-16T20:17:21;7.30;;;4.57;;
73104;SDS011;61296;50.526;30.792;2023-03-16T20:32:42;11.95;;;5.13;;
73104;SDS011;61296;50.526;30.792;2023-03-16T20:48:05;8.32;;;4.00;;
73104;SDS011;61296;50.526;30.792;2023-03-16T21:03:31;8.32;;;4.40;;
73104;SDS011;61296;50.526;30.792;2023-03-16T21:18:51;10.18;;;4.78;;
73104;SDS011;61296;50.526;30.792;2023-03-16T21:34:29;8.52;;;4.38;;
73104;SDS011;61296;50.526;30.792;2023-03-16T21:49:53;5.78;;;3.85;;
73104;SDS011;61296;50.526;30.792;2023-03-16T22:20:44;4.82;;;2.90;;
73104;SDS011;61296;50.526;30.792;2023-03-16T22:36:05;3.30;;;2.40;;
73104;SDS011;61296;50.526;30.792;2023-03-16T22:51:30;5.07;;;1.77;;
73104;SDS011;61296;50.526;30.792;2023-03-16T23:06:52;2.50;;;1.60;;
73104;SDS011;61296;50.526;30.792;2023-03-16T23:22:12;3.28;;;2.35;;
73104;SDS011;61296;50.526;30.792;2023-03-16T23:37:32;2.25;;;1.50;;
73104;SDS011;61296;50.526;30.792;2023-03-16T23:52:53;3.08;;;1.90;;
